createdAt,value
2023-08-04T00:00:44.961Z,70.13
2023-08-04T00:03:16.919Z,69.87
2023-08-04T00:05:48.728Z,69.77
2023-08-04T00:08:20.607Z,69.46
2023-08-04T00:10:52.900Z,69.45
2023-08-04T00:13:24.711Z,70.34
2023-08-04T00:15:56.618Z,69.61
2023-08-04T00:18:28.496Z,69.87
2023-08-04T00:21:02.485Z,70.15
2023-08-04T00:23:34.418Z,69.59
2023-08-04T00:26:06.196Z,69.61
2023-08-04T00:28:38.020Z,70.07
2023-08-04T00:31:09.827Z,70.32
2023-08-04T00:33:41.712Z,70.15
2023-08-04T00:36:13.553Z,70.34
2023-08-04T00:38:45.406Z,70.16
2023-08-04T00:41:17.174Z,70.04
2023-08-04T00:43:48.951Z,70.37
2023-08-04T00:46:21.318Z,70.93
2023-08-04T00:48:53.871Z,70.05
2023-08-04T00:51:25.904Z,70.35
2023-08-04T00:53:57.884Z,70.38
2023-08-04T00:56:30.626Z,70.98
2023-08-04T00:59:02.455Z,71.27
2023-08-04T01:01:34.307Z,71.35
2023-08-04T01:04:06.288Z,71.04
2023-08-04T01:06:49.515Z,71.62
2023-08-04T01:09:40.883Z,71.71
2023-08-04T01:12:31.109Z,71.65
2023-08-04T01:15:04.378Z,71.90
2023-08-04T01:17:37.337Z,72.11
2023-08-04T01:20:09.878Z,72.55
2023-08-04T01:22:41.690Z,72.52
2023-08-04T01:25:13.605Z,72.52
2023-08-04T01:27:53.969Z,72.29
2023-08-04T01:30:27.222Z,72.42
2023-08-04T01:32:59.481Z,72.26
2023-08-04T01:35:31.490Z,72.94
2023-08-04T01:38:03.290Z,72.58
2023-08-04T01:40:35.360Z,72.63
2023-08-04T01:43:07.150Z,72.51
2023-08-04T01:45:39.079Z,72.90
2023-08-04T01:48:10.936Z,72.51
2023-08-04T01:50:42.896Z,72.92
2023-08-04T01:53:14.649Z,72.73
2023-08-04T01:55:48.935Z,72.39
2023-08-04T01:58:22.091Z,72.61
2023-08-04T02:00:53.966Z,72.66
2023-08-04T02:03:26.032Z,73.05
2023-08-04T02:05:57.785Z,73.14
2023-08-04T02:08:29.602Z,72.96
2023-08-04T02:11:01.524Z,72.87
2023-08-04T02:13:33.304Z,73.04
2023-08-04T02:16:05.212Z,73.24
2023-08-04T02:18:37.100Z,73.40
2023-08-04T02:21:08.953Z,73.50
2023-08-04T02:23:40.740Z,73.12
2023-08-04T02:26:12.536Z,73.78
2023-08-04T02:28:44.324Z,73.63
2023-08-04T02:31:16.268Z,74.05
2023-08-04T02:33:48.177Z,74.14
2023-08-04T02:36:20.908Z,73.65
2023-08-04T02:38:52.856Z,73.66
2023-08-04T02:41:24.717Z,74.06
2023-08-04T02:43:56.677Z,74.08
2023-08-04T02:46:28.827Z,73.54
2023-08-04T02:49:00.679Z,73.36
2023-08-04T02:51:32.700Z,74.41
2023-08-04T02:54:04.571Z,73.72
2023-08-04T02:56:36.546Z,73.77
2023-08-04T02:59:10.634Z,74.22
2023-08-04T03:01:42.717Z,73.51
2023-08-04T03:04:15.654Z,73.73
2023-08-04T03:06:47.418Z,73.67
2023-08-04T03:09:19.213Z,73.51
2023-08-04T03:11:50.984Z,73.87
2023-08-04T03:14:22.783Z,73.50
2023-08-04T03:16:54.606Z,73.18
2023-08-04T03:19:26.410Z,73.28
2023-08-04T03:21:58.197Z,73.40
2023-08-04T03:24:31.688Z,73.81
2023-08-04T03:27:03.751Z,73.52
2023-08-04T03:29:35.643Z,73.68
2023-08-04T03:32:07.570Z,73.04
2023-08-04T03:34:39.355Z,73.39
2023-08-04T03:37:11.137Z,73.68
2023-08-04T03:39:43.042Z,73.02
2023-08-04T03:42:14.843Z,73.15
2023-08-04T03:44:46.756Z,72.74
2023-08-04T03:47:18.552Z,72.73
2023-08-04T03:49:50.363Z,72.32
2023-08-04T03:52:22.214Z,72.49
2023-08-04T03:54:54.152Z,72.83
2023-08-04T03:57:25.944Z,72.10
2023-08-04T03:59:57.965Z,72.70
2023-08-04T04:02:29.964Z,72.02
2023-08-04T04:05:01.828Z,71.88
2023-08-04T04:07:33.689Z,71.49
2023-08-04T04:10:06.452Z,71.76
2023-08-04T04:12:38.269Z,71.35
2023-08-04T04:15:10.520Z,71.58
2023-08-04T04:17:42.322Z,71.38
2023-08-04T04:20:14.149Z,71.32
2023-08-04T04:22:45.950Z,71.38
2023-08-04T04:25:17.955Z,71.29
2023-08-04T04:27:49.791Z,71.79
2023-08-04T04:30:21.573Z,71.46
2023-08-04T04:32:53.481Z,71.29
2023-08-04T04:35:25.321Z,71.31
2023-08-04T04:37:57.283Z,70.89
2023-08-04T04:40:29.093Z,70.68
2023-08-04T04:43:01.081Z,70.09
2023-08-04T04:45:32.860Z,70.30
2023-08-04T04:48:04.825Z,70.94
2023-08-04T04:50:36.640Z,70.22
2023-08-04T04:53:08.560Z,70.51
2023-08-04T04:55:40.548Z,70.44
2023-08-04T04:58:15.577Z,70.41
2023-08-04T05:00:47.439Z,70.58
2023-08-04T05:03:19.251Z,70.50
2023-08-04T05:05:51.470Z,70.05
2023-08-04T05:08:23.273Z,70.23
2023-08-04T05:10:55.660Z,70.09
2023-08-04T05:13:27.552Z,69.59
2023-08-04T05:15:59.396Z,69.22
2023-08-04T05:18:31.391Z,69.29
2023-08-04T05:21:04.539Z,68.40
2023-08-04T05:23:36.548Z,68.46
2023-08-04T05:26:08.393Z,67.58
2023-08-04T05:28:40.206Z,67.40
2023-08-04T05:31:12.061Z,66.20
2023-08-04T05:33:43.982Z,65.92
2023-08-04T05:36:15.888Z,65.38
2023-08-04T05:38:47.684Z,63.76
2023-08-04T05:41:19.644Z,63.34
2023-08-04T05:43:51.445Z,63.83
2023-08-04T05:46:23.731Z,62.39
2023-08-04T05:48:55.595Z,62.44
2023-08-04T05:51:27.634Z,61.77
2023-08-04T05:53:59.402Z,61.42
2023-08-04T05:56:31.296Z,59.34
2023-08-04T05:59:03.249Z,59.91
2023-08-04T06:01:35.269Z,59.19
2023-08-04T06:04:07.150Z,58.79
2023-08-04T06:06:38.979Z,57.41
2023-08-04T06:09:10.862Z,56.97
2023-08-04T06:11:42.874Z,56.96
2023-08-04T06:14:14.864Z,55.68
2023-08-04T06:16:46.738Z,56.17
2023-08-04T06:19:18.687Z,57.47
2023-08-04T06:21:50.813Z,56.98
2023-08-04T06:24:30.768Z,55.78
2023-08-04T06:27:04.773Z,57.29
2023-08-04T06:29:36.709Z,54.98
2023-08-04T06:32:09.273Z,55.42
2023-08-04T06:34:41.085Z,53.81
2023-08-04T06:37:12.865Z,53.77
2023-08-04T06:39:44.658Z,54.58
2023-08-04T06:42:17.926Z,54.06
2023-08-04T06:44:49.965Z,53.18
2023-08-04T06:47:21.758Z,53.73
2023-08-04T06:49:53.569Z,53.11
2023-08-04T06:52:25.425Z,53.27
2023-08-04T06:54:57.630Z,55.03
2023-08-04T06:57:29.476Z,54.59
2023-08-04T07:00:01.245Z,53.36
2023-08-04T07:02:33.421Z,53.00
2023-08-04T07:05:05.495Z,52.80
2023-08-04T07:07:37.350Z,52.99
2023-08-04T07:10:09.530Z,49.82
2023-08-04T07:12:41.318Z,52.75
2023-08-04T07:15:13.228Z,50.96
2023-08-04T07:17:45.203Z,50.97
2023-08-04T07:20:17.203Z,49.71
2023-08-04T07:22:49.003Z,49.30
2023-08-04T07:25:20.820Z,50.10
2023-08-04T07:27:52.566Z,50.13
2023-08-04T07:30:24.560Z,51.73
2023-08-04T07:32:56.380Z,52.11
2023-08-04T07:35:30.685Z,48.97
2023-08-04T07:38:02.561Z,49.88
2023-08-04T07:40:39.528Z,49.10
2023-08-04T07:43:13.420Z,50.53
2023-08-04T07:45:45.250Z,50.24
2023-08-04T07:48:17.039Z,50.23
2023-08-04T07:50:50.395Z,50.29
2023-08-04T07:53:22.366Z,48.67
2023-08-04T07:55:58.801Z,47.79
2023-08-04T07:58:30.664Z,48.15
2023-08-04T08:01:05.492Z,49.39
2023-08-04T08:03:37.818Z,47.70
2023-08-04T08:06:09.883Z,46.35
2023-08-04T08:08:41.739Z,46.17
2023-08-04T08:11:14.290Z,46.95
2023-08-04T08:13:46.127Z,46.44
2023-08-04T08:16:20.118Z,45.15
2023-08-04T08:18:52.101Z,46.12
2023-08-04T08:21:24.075Z,45.86
2023-08-04T08:23:55.843Z,47.61
2023-08-04T08:26:27.722Z,46.73
2023-08-04T08:28:59.577Z,46.80
2023-08-04T08:31:31.445Z,45.36
2023-08-04T08:34:03.221Z,46.91
2023-08-04T08:36:35.056Z,47.33
2023-08-04T08:39:06.922Z,46.60
2023-08-04T08:41:38.818Z,47.27
2023-08-04T08:44:11.378Z,47.18
2023-08-04T08:46:44.304Z,46.57
2023-08-04T08:49:17.051Z,48.69
2023-08-04T08:51:53.304Z,49.08
2023-08-04T08:54:28.628Z,46.97
2023-08-04T08:57:01.069Z,47.97
2023-08-04T08:59:33.979Z,48.88
2023-08-04T09:02:06.474Z,47.12
2023-08-04T09:04:39.464Z,47.42
2023-08-04T09:07:11.214Z,45.44
2023-08-04T09:09:42.983Z,46.06
2023-08-04T09:12:15.256Z,47.05
2023-08-04T09:14:54.005Z,43.02
2023-08-04T09:17:40.452Z,43.91
2023-08-04T09:20:28.684Z,43.68
2023-08-04T09:23:02.033Z,44.51
2023-08-04T09:25:52.378Z,43.85
2023-08-04T09:28:24.249Z,43.59
2023-08-04T09:31:07.266Z,42.87
2023-08-04T09:33:43.310Z,43.13
2023-08-04T09:36:17.848Z,43.43
2023-08-04T09:38:49.751Z,42.22
2023-08-04T09:41:21.532Z,42.33
2023-08-04T09:43:53.715Z,42.77
2023-08-04T09:46:25.553Z,41.81
2023-08-04T09:49:01.323Z,42.82
2023-08-04T09:51:41.424Z,42.40
2023-08-04T09:54:15.191Z,41.01
2023-08-04T09:56:48.495Z,42.92
2023-08-04T09:59:21.079Z,41.59
2023-08-04T10:01:54.254Z,41.38
2023-08-04T10:04:26.695Z,42.29
2023-08-04T10:06:59.579Z,41.00
2023-08-04T10:09:33.038Z,42.49
2023-08-04T10:12:06.035Z,41.05
2023-08-04T10:14:38.016Z,42.10
2023-08-04T10:17:10.490Z,41.10
2023-08-04T10:19:42.932Z,41.90
2023-08-04T10:22:14.936Z,41.97
2023-08-04T10:24:46.788Z,41.94
2023-08-04T10:27:22.876Z,40.19
2023-08-04T10:30:10.777Z,39.69
2023-08-04T10:32:43.629Z,39.13
2023-08-04T10:35:23.138Z,41.92
2023-08-04T10:38:01.281Z,40.78
2023-08-04T10:40:36.068Z,41.07
2023-08-04T10:43:10.016Z,41.06
2023-08-04T10:46:02.736Z,40.40
2023-08-04T10:48:40.347Z,41.47
2023-08-04T10:51:12.265Z,40.25
2023-08-04T10:53:44.715Z,41.46
2023-08-04T10:56:22.586Z,39.82
2023-08-04T10:58:54.406Z,39.71
2023-08-04T11:01:30.288Z,40.77
2023-08-04T11:04:02.303Z,39.46
2023-08-04T11:06:34.120Z,40.92
2023-08-04T11:09:06.000Z,40.90
2023-08-04T11:11:38.094Z,41.47
2023-08-04T11:14:10.084Z,42.59
2023-08-04T11:16:47.339Z,42.78
2023-08-04T11:19:22.419Z,42.05
2023-08-04T11:21:54.175Z,42.35
2023-08-04T11:24:26.011Z,41.34
2023-08-04T11:27:04.839Z,42.02
2023-08-04T11:29:37.421Z,43.33
2023-08-04T11:32:23.760Z,40.79
2023-08-04T11:34:57.306Z,40.38
2023-08-04T11:37:29.382Z,40.06
2023-08-04T11:40:01.286Z,41.50
2023-08-04T11:42:38.340Z,39.59
2023-08-04T11:45:10.349Z,37.96
2023-08-04T11:47:42.477Z,40.74
2023-08-04T11:50:16.696Z,40.41
2023-08-04T11:52:48.768Z,41.64
2023-08-04T11:55:21.046Z,40.50
2023-08-04T11:57:57.786Z,39.59
2023-08-04T12:00:37.653Z,40.15
2023-08-04T12:03:09.702Z,39.04
2023-08-04T12:05:42.089Z,39.37
2023-08-04T12:08:16.093Z,40.29
2023-08-04T12:11:02.464Z,40.86
2023-08-04T12:13:35.647Z,40.85
2023-08-04T12:16:08.033Z,39.94
2023-08-04T12:18:43.280Z,40.11
2023-08-04T12:21:16.746Z,41.28
2023-08-04T12:23:50.467Z,40.71
2023-08-04T12:26:24.820Z,40.47
2023-08-04T12:28:56.746Z,39.89
2023-08-04T12:31:28.562Z,41.36
2023-08-04T12:34:00.445Z,39.26
2023-08-04T12:36:32.471Z,38.26
2023-08-04T12:39:05.374Z,39.75
2023-08-04T12:41:37.535Z,39.03
2023-08-04T12:44:09.437Z,37.69
2023-08-04T12:46:42.463Z,39.08
2023-08-04T12:49:14.319Z,39.68
2023-08-04T12:51:46.616Z,39.67
2023-08-04T12:54:18.642Z,38.65
2023-08-04T12:56:50.834Z,38.57
2023-08-04T12:59:25.064Z,39.41
2023-08-04T13:01:56.927Z,40.75
2023-08-04T13:04:29.245Z,41.40
2023-08-04T13:07:02.913Z,40.37
2023-08-04T13:09:34.667Z,40.40
2023-08-04T13:12:06.904Z,40.48
2023-08-04T13:14:38.711Z,41.13
2023-08-04T13:17:10.683Z,39.85
2023-08-04T13:19:45.586Z,40.67
2023-08-04T13:22:17.599Z,40.86
2023-08-04T13:24:50.985Z,40.38
2023-08-04T13:27:23.177Z,41.22
2023-08-04T13:29:55.134Z,42.11
2023-08-04T13:32:27.017Z,42.17
2023-08-04T13:34:58.950Z,41.64
2023-08-04T13:37:30.956Z,40.31
2023-08-04T13:40:02.916Z,40.59
2023-08-04T13:42:36.171Z,40.74
2023-08-04T13:45:09.935Z,40.84
2023-08-04T13:47:41.759Z,40.45
2023-08-04T13:50:13.686Z,39.77
2023-08-04T13:52:45.604Z,39.05
2023-08-04T13:55:17.499Z,40.15
2023-08-04T13:57:49.347Z,39.98
2023-08-04T14:00:21.219Z,40.87
2023-08-04T14:02:53.220Z,40.48
2023-08-04T14:05:25.220Z,38.85
2023-08-04T14:07:57.182Z,39.97
2023-08-04T14:10:29.189Z,39.60
2023-08-04T14:13:00.980Z,40.45
2023-08-04T14:15:32.758Z,40.33
2023-08-04T14:18:04.945Z,40.45
2023-08-04T14:20:36.876Z,39.51
2023-08-04T14:23:10.142Z,39.97
2023-08-04T14:25:46.757Z,41.92
2023-08-04T14:28:20.467Z,41.30
2023-08-04T14:30:54.413Z,40.65
2023-08-04T14:33:26.302Z,41.46
2023-08-04T14:35:58.111Z,41.36
2023-08-04T14:38:30.010Z,41.82
2023-08-04T14:41:01.809Z,42.88
2023-08-04T14:43:33.933Z,41.93
2023-08-04T14:46:10.385Z,42.96
2023-08-04T14:48:43.129Z,42.64
2023-08-04T14:51:15.095Z,43.43
2023-08-04T14:53:46.906Z,43.32
2023-08-04T14:56:18.932Z,43.56
2023-08-04T14:58:50.791Z,43.98
2023-08-04T15:01:23.782Z,43.91
2023-08-04T15:03:57.572Z,44.17
2023-08-04T15:06:29.581Z,44.27
2023-08-04T15:09:01.522Z,43.63
2023-08-04T15:11:33.724Z,44.10
2023-08-04T15:14:05.531Z,43.81
2023-08-04T15:16:38.800Z,43.71
2023-08-04T15:19:10.694Z,43.41
2023-08-04T15:21:42.477Z,43.18
2023-08-04T15:24:14.294Z,42.86
2023-08-04T15:26:46.331Z,44.25
2023-08-04T15:29:18.255Z,44.30
2023-08-04T15:31:52.527Z,43.64
2023-08-04T15:34:24.438Z,43.57
2023-08-04T15:36:56.221Z,43.92
2023-08-04T15:39:28.174Z,43.31
2023-08-04T15:42:00.105Z,44.41
2023-08-04T15:44:32.061Z,43.50
2023-08-04T15:47:05.205Z,43.69
2023-08-04T15:49:37.042Z,43.70
2023-08-04T15:52:09.168Z,43.91
2023-08-04T15:54:41.381Z,43.61
2023-08-04T15:57:13.219Z,44.54
2023-08-04T15:59:45.303Z,44.76
2023-08-04T16:02:17.257Z,44.38
2023-08-04T16:04:49.084Z,44.69
2023-08-04T16:07:21.313Z,44.49
2023-08-04T16:09:54.291Z,44.38
2023-08-04T16:12:27.162Z,44.83
2023-08-04T16:14:58.974Z,45.18
2023-08-04T16:17:30.762Z,44.78
2023-08-04T16:20:03.560Z,44.67
2023-08-04T16:22:35.340Z,44.96
2023-08-04T16:25:07.502Z,45.08
2023-08-04T16:27:39.547Z,45.60
2023-08-04T16:30:11.980Z,45.48
2023-08-04T16:32:44.011Z,45.53
2023-08-04T16:35:16.034Z,45.57
2023-08-04T16:37:49.254Z,45.67
2023-08-04T16:40:21.259Z,46.16
2023-08-04T16:42:53.219Z,45.59
2023-08-04T16:45:26.324Z,45.81
2023-08-04T16:47:58.364Z,46.18
2023-08-04T16:50:30.591Z,45.98
2023-08-04T16:53:02.494Z,45.90
2023-08-04T16:55:34.420Z,46.60
2023-08-04T16:58:06.212Z,46.54
2023-08-04T17:00:37.980Z,46.62
2023-08-04T17:03:09.815Z,46.84
2023-08-04T17:05:41.652Z,47.03
2023-08-04T17:08:13.428Z,47.38
2023-08-04T17:10:45.214Z,47.85
2023-08-04T17:13:16.990Z,48.06
2023-08-04T17:15:48.996Z,48.34
2023-08-04T17:18:20.835Z,48.68
2023-08-04T17:20:56.747Z,48.46
2023-08-04T17:23:28.581Z,49.16
2023-08-04T17:26:01.504Z,49.46
2023-08-04T17:28:34.183Z,49.28
2023-08-04T17:31:06.164Z,48.64
2023-08-04T17:33:38.046Z,49.20
2023-08-04T17:36:09.836Z,49.48
2023-08-04T17:38:41.688Z,49.12
2023-08-04T17:41:13.462Z,50.26
2023-08-04T17:43:45.498Z,49.63
2023-08-04T17:46:20.435Z,49.49
2023-08-04T17:48:52.717Z,49.71
2023-08-04T17:51:24.540Z,49.52
2023-08-04T17:53:56.330Z,49.47
2023-08-04T17:56:28.283Z,51.25
2023-08-04T17:59:00.045Z,51.01
2023-08-04T18:01:31.866Z,50.21
2023-08-04T18:04:05.866Z,51.88
2023-08-04T18:06:37.624Z,52.00
2023-08-04T18:09:09.572Z,52.29
2023-08-04T18:11:41.391Z,53.12
2023-08-04T18:14:13.215Z,53.07
2023-08-04T18:16:47.099Z,53.64
2023-08-04T18:19:19.182Z,54.02
2023-08-04T18:21:53.387Z,54.31
2023-08-04T18:24:25.750Z,54.55
2023-08-04T18:26:57.546Z,54.17
2023-08-04T18:29:29.342Z,53.43
2023-08-04T18:32:01.200Z,52.75
2023-08-04T18:34:33.092Z,52.96
2023-08-04T18:37:05.275Z,52.81
2023-08-04T18:39:38.099Z,53.43
2023-08-04T18:42:09.923Z,53.64
2023-08-04T18:44:41.717Z,54.53
2023-08-04T18:47:13.505Z,55.29
2023-08-04T18:49:47.253Z,55.13
2023-08-04T18:52:19.026Z,55.07
2023-08-04T18:54:50.977Z,56.24
2023-08-04T18:57:22.773Z,56.46
2023-08-04T18:59:54.622Z,56.21
2023-08-04T19:02:26.457Z,56.60
2023-08-04T19:04:58.322Z,56.73
2023-08-04T19:07:30.096Z,57.21
2023-08-04T19:10:01.927Z,57.33
2023-08-04T19:12:34.326Z,57.80
2023-08-04T19:15:06.712Z,57.87
2023-08-04T19:17:38.608Z,58.72
2023-08-04T19:20:11.195Z,58.70
2023-08-04T19:22:43.013Z,59.24
2023-08-04T19:25:17.441Z,58.46
2023-08-04T19:27:49.263Z,58.66
2023-08-04T19:30:22.687Z,58.08
2023-08-04T19:32:55.406Z,57.34
2023-08-04T19:35:28.055Z,57.07
2023-08-04T19:38:01.233Z,56.82
2023-08-04T19:40:33.287Z,56.61
2023-08-04T19:43:05.234Z,56.94
2023-08-04T19:45:38.955Z,56.63
2023-08-04T19:48:12.105Z,58.01
2023-08-04T19:50:44.028Z,58.69
2023-08-04T19:53:17.186Z,58.00
2023-08-04T19:56:08.947Z,57.53
2023-08-04T19:58:42.178Z,58.42
2023-08-04T20:01:14.173Z,58.23
2023-08-04T20:03:46.706Z,58.46
2023-08-04T20:06:18.961Z,58.98
2023-08-04T20:08:50.861Z,58.92
2023-08-04T20:11:22.674Z,58.99
2023-08-04T20:13:54.462Z,59.07
2023-08-04T20:16:26.389Z,58.92
2023-08-04T20:18:58.205Z,58.08
2023-08-04T20:21:33.131Z,58.42
2023-08-04T20:24:05.063Z,60.00
2023-08-04T20:26:37.120Z,60.31
2023-08-04T20:29:08.895Z,60.56
2023-08-04T20:31:40.681Z,60.82
2023-08-04T20:34:12.778Z,61.46
2023-08-04T20:36:44.655Z,61.81
2023-08-04T20:39:16.429Z,61.56
2023-08-04T20:41:48.227Z,61.38
2023-08-04T20:44:20.358Z,61.49
2023-08-04T20:46:52.265Z,62.40
2023-08-04T20:49:24.784Z,62.37
2023-08-04T20:51:56.598Z,62.63
2023-08-04T20:54:28.579Z,62.10
2023-08-04T20:57:00.586Z,61.98
2023-08-04T20:59:33.157Z,62.57
2023-08-04T21:02:05.435Z,62.78
2023-08-04T21:04:40.274Z,62.07
2023-08-04T21:07:12.128Z,62.41
2023-08-04T21:09:44.069Z,63.32
2023-08-04T21:12:15.844Z,63.10
2023-08-04T21:14:47.783Z,63.44
2023-08-04T21:17:19.595Z,63.44
2023-08-04T21:19:51.386Z,63.74
2023-08-04T21:22:23.298Z,64.12
2023-08-04T21:24:55.073Z,64.23
2023-08-04T21:27:27.071Z,64.51
2023-08-04T21:29:58.978Z,64.76
2023-08-04T21:32:30.777Z,65.42
2023-08-04T21:35:02.744Z,65.26
2023-08-04T21:37:36.445Z,65.70
2023-08-04T21:40:09.020Z,65.86
2023-08-04T21:42:40.910Z,65.68
2023-08-04T21:45:12.688Z,65.74
2023-08-04T21:47:48.984Z,65.36
2023-08-04T21:50:21.131Z,66.16
2023-08-04T21:52:52.984Z,66.45
2023-08-04T21:55:24.874Z,66.55
2023-08-04T21:57:56.698Z,66.20
2023-08-04T22:00:28.493Z,66.12
2023-08-04T22:03:00.401Z,67.03
2023-08-04T22:05:34.208Z,67.12
2023-08-04T22:08:06.079Z,67.01
2023-08-04T22:10:37.932Z,66.70
2023-08-04T22:13:09.753Z,66.73
2023-08-04T22:15:41.584Z,65.96
2023-08-04T22:18:13.389Z,66.13
2023-08-04T22:20:46.875Z,67.25
2023-08-04T22:23:19.121Z,67.15
2023-08-04T22:25:58.288Z,67.50
2023-08-04T22:28:30.748Z,67.73
2023-08-04T22:31:02.800Z,67.85
2023-08-04T22:33:34.814Z,68.15
2023-08-04T22:36:06.687Z,68.06
2023-08-04T22:38:38.513Z,67.77
2023-08-04T22:41:10.334Z,68.58
2023-08-04T22:43:42.204Z,68.85
2023-08-04T22:46:14.014Z,68.97
2023-08-04T22:48:46.089Z,70.16
2023-08-04T22:51:17.871Z,69.26
2023-08-04T22:53:49.831Z,69.11
2023-08-04T22:56:21.652Z,69.59
2023-08-04T22:58:53.963Z,70.08
2023-08-04T23:01:26.474Z,68.90
2023-08-04T23:03:58.376Z,69.29
2023-08-04T23:06:30.184Z,68.40
2023-08-04T23:09:02.378Z,68.09
2023-08-04T23:11:34.164Z,68.76
2023-08-04T23:14:07.076Z,68.87
2023-08-04T23:16:39.036Z,68.23
2023-08-04T23:19:10.891Z,68.11
2023-08-04T23:21:42.687Z,67.26
2023-08-04T23:27:00.328Z,69.10
2023-08-04T23:29:32.113Z,67.91
2023-08-04T23:32:04.350Z,68.45
2023-08-04T23:34:36.155Z,68.38
2023-08-04T23:37:08.414Z,68.47
2023-08-04T23:39:40.247Z,68.05
2023-08-04T23:42:15.331Z,68.61
2023-08-04T23:44:47.170Z,68.32
2023-08-04T23:47:18.999Z,67.32
2023-08-04T23:49:50.872Z,67.94
2023-08-04T23:52:22.694Z,67.42
2023-08-04T23:54:54.710Z,67.32
2023-08-04T23:57:27.858Z,68.73
2023-08-04T23:59:59.882Z,69.07
